Time;durP1;ratioP1;P1;durP2;ratioP2;P2;SDS_P1;SDS_P2;PMS_P1;PMS_P2;Temp;Humidity;BMP_temperature;BMP_pressure;BME280_temperature;BME280_humidity;BME280_pressure;Samples;Min_cycle;Max_cycle;Signal;HPM_P1;HPM_P2
2021/06/29 00:01:42;;;;;;;8.67;7.87;;;22.00;99.90;;;;;;5047818;28;20831;-67
2021/06/29 00:04:09;;;;;;;9.40;8.60;;;22.00;99.90;;;;;;5064138;28;20909;-68
2021/06/29 00:06:36;;;;;;;9.60;8.80;;;21.90;99.90;;;;;;5052722;28;20479;-67
2021/06/29 00:09:04;;;;;;;9.23;8.43;;;21.90;99.90;;;;;;5043730;28;20449;-69
2021/06/29 00:11:31;;;;;;;8.80;8.00;;;21.90;99.90;;;;;;5044952;28;20460;-68
2021/06/29 00:14:00;;;;;;;9.40;8.57;;;22.00;99.90;;;;;;5048967;28;20495;-67
2021/06/29 00:16:27;;;;;;;10.70;9.73;;;22.00;99.90;;;;;;5048227;28;21242;-68
2021/06/29 00:18:54;;;;;;;9.93;9.07;;;22.00;99.90;;;;;;5051304;28;20455;-69
2021/06/29 00:21:21;;;;;;;8.97;8.20;;;21.90;99.90;;;;;;5051625;28;20444;-69
2021/06/29 00:23:48;;;;;;;8.70;7.90;;;21.90;99.90;;;;;;5043435;28;20984;-68
2021/06/29 00:26:15;;;;;;;9.37;8.53;;;21.90;99.90;;;;;;5043024;28;20811;-68
2021/06/29 00:28:43;;;;;;;10.30;9.40;;;22.00;99.90;;;;;;5041225;28;20449;-68
2021/06/29 00:31:11;;;;;;;10.63;9.73;;;21.90;99.90;;;;;;5042752;28;20449;-69
2021/06/29 00:33:38;;;;;;;10.97;9.87;;;21.80;99.90;;;;;;5041081;28;20485;-70
2021/06/29 00:36:06;;;;;;;9.90;9.00;;;21.70;99.90;;;;;;5042158;28;20455;-69
2021/06/29 00:38:33;;;;;;;9.90;8.90;;;21.60;99.90;;;;;;5044597;28;20457;-68
2021/06/29 00:41:00;;;;;;;13.60;9.73;;;21.70;99.90;;;;;;5034850;28;20455;-68
2021/06/29 00:43:28;;;;;;;13.33;11.30;;;21.60;99.90;;;;;;5051040;28;20973;-69
2021/06/29 00:45:55;;;;;;;11.07;10.07;;;21.50;99.90;;;;;;5050916;28;20448;-69
2021/06/29 00:48:23;;;;;;;16.97;10.00;;;21.50;99.90;;;;;;5047842;28;20921;-70
2021/06/29 00:50:51;;;;;;;10.47;9.47;;;21.50;99.90;;;;;;5047116;28;20440;-69
2021/06/29 00:53:18;;;;;;;11.03;10.00;;;21.60;99.90;;;;;;5037726;28;20454;-69
2021/06/29 00:55:45;;;;;;;11.90;10.13;;;21.60;99.90;;;;;;5050493;28;20434;-68
2021/06/29 00:58:14;;;;;;;12.17;10.97;;;21.70;99.90;;;;;;5039888;28;20456;-69
2021/06/29 01:00:43;;;;;;;11.57;10.47;;;21.60;99.90;;;;;;5033161;28;20436;-67
2021/06/29 01:03:11;;;;;;;13.53;12.33;;;21.60;99.90;;;;;;5048076;28;20451;-68
2021/06/29 01:05:42;;;;;;;12.00;10.97;;;21.50;99.90;;;;;;5047941;28;20445;-68
2021/06/29 01:08:09;;;;;;;12.73;11.63;;;21.50;99.90;;;;;;5051180;28;20859;-68
2021/06/29 01:10:36;;;;;;;10.97;10.07;;;21.50;99.90;;;;;;5052635;28;20449;-69
2021/06/29 01:13:04;;;;;;;9.93;9.03;;;21.50;99.90;;;;;;5051696;28;20448;-69
2021/06/29 01:15:32;;;;;;;11.33;10.40;;;21.60;99.90;;;;;;5051613;28;20486;-67
2021/06/29 01:17:59;;;;;;;12.73;11.43;;;21.60;99.90;;;;;;5049876;28;20901;-68
2021/06/29 01:20:30;;;;;;;15.50;10.93;;;21.60;99.90;;;;;;5051265;28;20444;-68
2021/06/29 01:23:02;;;;;;;12.30;11.20;;;21.50;99.90;;;;;;5050697;28;20455;-70
2021/06/29 01:25:31;;;;;;;9.40;8.60;;;21.50;99.90;;;;;;5047844;28;20452;-68
2021/06/29 01:28:09;;;;;;;9.20;8.40;;;21.50;99.90;;;;;;5054761;28;20465;-69
2021/06/29 01:33:21;;;;;;;11.73;10.73;;;21.50;99.90;;;;;;5052177;28;20497;-68
2021/06/29 01:35:51;;;;;;;10.23;9.23;;;21.50;99.90;;;;;;5048278;28;20487;-68
2021/06/29 01:38:20;;;;;;;11.33;10.20;;;21.50;99.90;;;;;;5054179;28;20453;-68
2021/06/29 01:40:47;;;;;;;8.80;7.87;;;21.40;99.90;;;;;;5054611;28;20538;-68
2021/06/29 01:43:18;;;;;;;11.77;10.60;;;21.50;99.90;;;;;;5051734;28;20963;-67
2021/06/29 01:45:48;;;;;;;10.43;9.40;;;21.50;99.90;;;;;;5044204;28;20479;-68
2021/06/29 01:48:22;;;;;;;11.77;10.67;;;21.50;99.90;;;;;;5053096;28;20922;-68
2021/06/29 01:50:51;;;;;;;10.40;9.60;;;21.50;99.90;;;;;;5050077;28;20997;-68
2021/06/29 01:53:19;;;;;;;10.50;9.60;;;21.50;99.90;;;;;;5048172;28;20439;-68
2021/06/29 01:55:46;;;;;;;10.37;9.37;;;21.60;99.90;;;;;;5054889;28;20971;-68
2021/06/29 01:58:19;;;;;;;10.50;9.50;;;21.60;99.90;;;;;;5039734;28;20475;-67
2021/06/29 02:00:47;;;;;;;11.03;8.90;;;21.60;99.90;;;;;;5053550;28;20443;-68
2021/06/29 02:03:14;;;;;;;12.50;11.40;;;21.60;99.90;;;;;;5038741;28;20833;-68
2021/06/29 02:05:42;;;;;;;10.50;9.53;;;21.50;99.90;;;;;;5053786;28;20988;-67
2021/06/29 02:08:11;;;;;;;11.23;10.23;;;21.40;99.90;;;;;;5047841;28;20449;-67
2021/06/29 02:10:38;;;;;;;10.90;10.00;;;21.40;99.90;;;;;;5053557;28;20460;-68
2021/06/29 02:13:05;;;;;;;11.70;10.63;;;21.40;99.90;;;;;;5043530;28;20823;-68
2021/06/29 02:15:33;;;;;;;10.20;9.20;;;21.40;99.90;;;;;;5051637;28;21001;-67
2021/06/29 02:18:00;;;;;;;12.37;11.20;;;21.40;99.90;;;;;;5048247;28;20465;-68
2021/06/29 02:20:27;;;;;;;11.63;10.23;;;21.40;99.90;;;;;;5038964;28;20457;-69
2021/06/29 02:22:55;;;;;;;11.43;10.43;;;21.40;99.90;;;;;;5049707;28;20513;-68
2021/06/29 02:25:23;;;;;;;10.67;9.67;;;21.40;99.90;;;;;;5050726;28;20466;-69
2021/06/29 02:27:51;;;;;;;12.17;10.97;;;21.40;99.90;;;;;;5041372;28;20469;-68
2021/06/29 02:30:18;;;;;;;11.73;10.67;;;21.30;99.90;;;;;;5045743;28;20451;-68
2021/06/29 02:32:45;;;;;;;10.90;9.77;;;21.30;99.90;;;;;;5045180;28;20448;-67
2021/06/29 02:35:13;;;;;;;11.07;10.13;;;21.30;99.90;;;;;;5045988;28;20558;-68
2021/06/29 02:37:40;;;;;;;10.73;9.83;;;21.30;99.90;;;;;;5048508;28;20447;-68
2021/06/29 02:40:09;;;;;;;10.53;9.63;;;21.30;99.90;;;;;;5043880;28;20451;-68
2021/06/29 02:42:38;;;;;;;13.50;11.17;;;21.30;99.90;;;;;;5042305;28;20451;-68
2021/06/29 02:45:07;;;;;;;10.30;9.40;;;21.30;99.90;;;;;;5053546;28;20468;-68
2021/06/29 02:47:35;;;;;;;10.30;9.33;;;21.40;99.90;;;;;;5051180;28;20483;-67
2021/06/29 02:50:03;;;;;;;11.40;10.40;;;21.40;99.90;;;;;;5049882;28;20940;-68
2021/06/29 02:52:32;;;;;;;10.23;9.30;;;21.40;99.90;;;;;;5043607;28;20793;-67
2021/06/29 02:54:59;;;;;;;10.13;9.23;;;21.40;99.90;;;;;;5046434;28;20534;-69
2021/06/29 02:57:27;;;;;;;11.40;10.40;;;21.40;99.90;;;;;;5054059;28;20971;-67
2021/06/29 02:59:56;;;;;;;11.53;10.43;;;21.40;99.90;;;;;;5045937;28;20447;-68
2021/06/29 03:02:23;;;;;;;11.30;10.20;;;21.40;99.90;;;;;;5040488;28;20445;-67
2021/06/29 03:04:51;;;;;;;13.00;11.80;;;21.40;99.90;;;;;;5051417;28;20477;-67
2021/06/29 03:07:18;;;;;;;12.17;10.97;;;21.30;99.90;;;;;;5051113;28;20455;-68
2021/06/29 03:09:45;;;;;;;13.03;11.27;;;21.20;99.90;;;;;;5052538;28;20448;-67
2021/06/29 03:12:12;;;;;;;12.67;11.57;;;21.20;99.90;;;;;;5048097;28;20457;-68
2021/06/29 03:14:41;;;;;;;13.17;11.97;;;21.20;99.90;;;;;;5050727;28;20476;-67
2021/06/29 03:17:10;;;;;;;11.93;10.83;;;21.10;99.90;;;;;;5044001;28;20450;-67
2021/06/29 03:19:37;;;;;;;13.27;11.97;;;21.10;99.90;;;;;;5048629;28;20442;-67
2021/06/29 03:22:06;;;;;;;16.47;11.87;;;21.10;99.90;;;;;;5053309;28;20451;-68
2021/06/29 03:24:33;;;;;;;13.70;12.40;;;21.10;99.90;;;;;;5052642;28;20458;-68
2021/06/29 03:27:00;;;;;;;14.00;12.80;;;21.10;99.90;;;;;;5053301;28;20450;-67
2021/06/29 03:29:27;;;;;;;15.03;12.10;;;21.00;99.90;;;;;;5045928;28;20451;-67
2021/06/29 03:31:54;;;;;;;11.93;10.93;;;21.00;99.90;;;;;;5051828;28;20918;-68
2021/06/29 03:34:23;;;;;;;13.80;9.83;;;21.00;99.90;;;;;;5052763;28;20466;-68
2021/06/29 03:36:50;;;;;;;12.33;11.27;;;21.10;99.90;;;;;;5051993;28;20933;-68
2021/06/29 03:39:18;;;;;;;12.03;10.80;;;21.10;99.90;;;;;;5053006;28;20464;-67
2021/06/29 03:41:45;;;;;;;13.13;11.80;;;21.10;99.90;;;;;;5051570;28;20543;-68
2021/06/29 03:44:12;;;;;;;12.27;11.27;;;21.20;99.90;;;;;;5050694;28;20462;-68
2021/06/29 03:46:40;;;;;;;13.03;11.70;;;21.10;99.90;;;;;;5040224;28;20449;-67
2021/06/29 03:49:07;;;;;;;13.50;12.30;;;21.10;99.90;;;;;;5044616;28;20795;-68
2021/06/29 03:51:36;;;;;;;12.40;11.10;;;21.00;99.90;;;;;;5048430;28;20445;-67
2021/06/29 03:54:03;;;;;;;14.73;12.53;;;21.00;99.90;;;;;;5051584;28;20829;-67
2021/06/29 03:56:32;;;;;;;13.27;11.43;;;21.10;99.90;;;;;;5046423;28;20486;-70
2021/06/29 03:59:01;;;;;;;12.33;11.23;;;21.10;99.90;;;;;;5047561;28;20465;-68
2021/06/29 04:01:29;;;;;;;11.80;10.43;;;21.10;99.90;;;;;;5044040;28;20450;-68
2021/06/29 04:03:57;;;;;;;15.07;11.17;;;21.20;99.90;;;;;;5052185;28;20488;-68
2021/06/29 04:06:24;;;;;;;12.97;11.03;;;21.10;99.90;;;;;;5044788;28;20451;-68
2021/06/29 04:08:53;;;;;;;10.00;9.20;;;21.20;99.90;;;;;;5049503;28;20449;-68
2021/06/29 04:11:21;;;;;;;10.23;9.23;;;21.20;99.90;;;;;;5052719;28;20450;-68
2021/06/29 04:13:49;;;;;;;13.03;11.30;;;21.40;99.90;;;;;;5048420;28;20481;-69
2021/06/29 04:16:16;;;;;;;10.37;9.47;;;21.40;99.90;;;;;;5047309;28;21013;-68
2021/06/29 04:18:44;;;;;;;10.90;9.90;;;21.40;99.90;;;;;;5052267;28;20529;-68
2021/06/29 04:21:11;;;;;;;11.63;10.50;;;21.50;99.90;;;;;;5051724;28;20790;-67
2021/06/29 04:23:42;;;;;;;11.33;10.23;;;21.50;99.90;;;;;;5052053;28;20476;-68
2021/06/29 04:26:12;;;;;;;11.47;9.97;;;21.40;99.90;;;;;;5046545;28;20573;-68
2021/06/29 04:28:39;;;;;;;12.60;11.40;;;21.50;99.90;;;;;;5038637;28;20961;-68
2021/06/29 04:31:07;;;;;;;11.63;10.63;;;21.40;99.90;;;;;;5045304;28;20455;-68
2021/06/29 04:33:34;;;;;;;11.80;10.67;;;21.50;99.90;;;;;;5049513;28;20458;-68
2021/06/29 04:36:07;;;;;;;11.23;10.00;;;21.50;99.90;;;;;;5039024;28;20845;-68
2021/06/29 04:38:35;;;;;;;10.43;9.43;;;21.40;99.90;;;;;;5050984;28;20450;-67
2021/06/29 04:41:04;;;;;;;12.33;11.20;;;21.50;99.90;;;;;;5048532;28;20447;-67
2021/06/29 04:43:33;;;;;;;13.03;10.50;;;21.50;99.90;;;;;;5051330;28;20461;-68
2021/06/29 04:46:06;;;;;;;13.67;10.30;;;21.50;99.90;;;;;;5046123;28;20451;-68
2021/06/29 04:48:36;;;;;;;12.73;11.43;;;21.40;99.90;;;;;;5047210;28;20455;-68
2021/06/29 04:51:10;;;;;;;19.10;12.67;;;21.30;99.90;;;;;;5050363;28;20805;-68
2021/06/29 04:53:37;;;;;;;13.57;12.27;;;21.30;99.90;;;;;;5036958;28;20965;-68
2021/06/29 04:56:17;;;;;;;12.90;11.70;;;21.30;99.90;;;;;;5046748;28;20473;-68
2021/06/29 04:58:48;;;;;;;12.30;11.00;;;21.30;99.90;;;;;;5047572;28;20504;-68
2021/06/29 05:01:26;;;;;;;14.50;13.10;;;21.30;99.90;;;;;;5035564;28;20458;-67
2021/06/29 05:03:53;;;;;;;13.10;11.83;;;21.20;99.90;;;;;;5042479;28;20467;-69
2021/06/29 05:06:20;;;;;;;15.10;13.60;;;21.20;99.90;;;;;;5055881;28;20455;-69
2021/06/29 05:08:55;;;;;;;17.23;15.20;;;21.20;99.90;;;;;;5049723;28;20456;-67
2021/06/29 05:11:22;;;;;;;14.23;12.80;;;21.20;99.90;;;;;;5053310;28;20925;-67
2021/06/29 05:13:51;;;;;;;18.50;16.80;;;21.10;99.90;;;;;;5053661;28;20473;-67
2021/06/29 05:16:18;;;;;;;16.60;15.10;;;21.10;99.90;;;;;;5051294;28;20490;-67
2021/06/29 05:18:45;;;;;;;18.10;16.27;;;21.10;99.90;;;;;;5051200;28;20447;-72
2021/06/29 05:21:13;;;;;;;20.60;18.70;;;21.00;99.90;;;;;;5055748;28;20947;-71
2021/06/29 05:23:40;;;;;;;17.20;15.70;;;21.00;99.90;;;;;;5054847;28;20825;-73
2021/06/29 05:26:07;;;;;;;17.50;15.03;;;21.00;99.90;;;;;;5051668;28;20481;-73
2021/06/29 05:28:34;;;;;;;19.73;17.87;;;21.00;99.90;;;;;;5050519;28;20455;-70
2021/06/29 05:31:03;;;;;;;18.80;16.83;;;21.00;99.90;;;;;;5044020;28;20445;-71
2021/06/29 05:33:30;;;;;;;14.93;13.60;;;20.90;99.90;;;;;;5048922;28;20469;-70
2021/06/29 05:35:57;;;;;;;15.33;13.73;;;21.00;99.90;;;;;;5054364;28;20475;-71
2021/06/29 05:38:24;;;;;;;17.97;16.33;;;20.90;99.90;;;;;;5054284;28;20438;-70
2021/06/29 05:40:51;;;;;;;14.40;13.00;;;20.90;99.90;;;;;;5054257;28;20455;-71
2021/06/29 05:43:20;;;;;;;19.00;17.10;;;20.90;99.90;;;;;;5052613;28;20450;-71
2021/06/29 05:45:47;;;;;;;15.10;13.77;;;21.00;99.90;;;;;;5048125;28;20825;-69
2021/06/29 05:48:18;;;;;;;17.00;15.07;;;21.00;99.90;;;;;;5052982;28;20474;-69
2021/06/29 05:50:45;;;;;;;16.50;15.03;;;21.10;99.90;;;;;;5047561;28;20470;-72
2021/06/29 05:53:13;;;;;;;16.83;15.20;;;21.00;99.90;;;;;;5052740;28;20490;-69
2021/06/29 05:55:40;;;;;;;14.77;13.20;;;21.00;99.90;;;;;;5058067;28;20953;-70
2021/06/29 05:58:07;;;;;;;15.20;13.67;;;21.10;99.90;;;;;;5050155;28;20916;-70
2021/06/29 06:00:34;;;;;;;14.30;13.00;;;21.10;99.90;;;;;;5048659;28;20455;-70
2021/06/29 06:03:01;;;;;;;16.30;14.67;;;21.10;99.90;;;;;;5051213;28;20447;-71
2021/06/29 06:05:30;;;;;;;13.17;11.97;;;21.20;99.90;;;;;;5046518;28;20447;-69
2021/06/29 06:07:57;;;;;;;13.90;12.50;;;21.20;99.90;;;;;;5054450;28;20447;-69
2021/06/29 06:10:24;;;;;;;15.23;12.20;;;21.30;99.90;;;;;;5052655;28;20462;-68
2021/06/29 06:12:52;;;;;;;13.03;11.83;;;21.30;99.90;;;;;;5039755;28;20454;-69
2021/06/29 06:15:20;;;;;;;14.13;12.83;;;21.30;99.90;;;;;;5047295;28;20465;-69
2021/06/29 06:17:47;;;;;;;12.93;11.83;;;21.40;99.90;;;;;;5051251;28;20452;-69
2021/06/29 06:20:14;;;;;;;17.23;14.20;;;21.40;99.90;;;;;;5050850;28;20473;-69
2021/06/29 06:22:43;;;;;;;12.00;10.93;;;21.40;99.90;;;;;;5043896;28;20456;-68
2021/06/29 06:25:10;;;;;;;12.97;11.87;;;21.60;99.90;;;;;;5053838;28;20474;-68
2021/06/29 06:27:37;;;;;;;15.30;13.80;;;21.70;99.90;;;;;;5045243;28;20791;-69
2021/06/29 06:30:05;;;;;;;13.70;12.37;;;21.80;99.90;;;;;;5051905;28;20437;-70
2021/06/29 06:32:33;;;;;;;12.77;11.57;;;21.80;99.90;;;;;;5049169;28;20456;-69
2021/06/29 06:35:00;;;;;;;13.40;12.30;;;21.90;99.90;;;;;;5051536;28;20496;-69
2021/06/29 06:37:27;;;;;;;13.97;10.70;;;22.00;99.90;;;;;;5046601;28;20556;-69
2021/06/29 06:39:56;;;;;;;13.00;11.80;;;22.30;99.90;;;;;;5045256;28;20446;-69
2021/06/29 06:42:24;;;;;;;13.20;12.10;;;22.30;99.90;;;;;;5051429;28;20443;-68
2021/06/29 06:44:51;;;;;;;12.97;11.67;;;22.30;99.90;;;;;;5049174;28;20475;-69
2021/06/29 06:47:18;;;;;;;12.87;11.67;;;22.30;99.90;;;;;;5047392;28;20448;-69
2021/06/29 06:49:45;;;;;;;11.90;10.30;;;22.50;99.90;;;;;;5045338;28;20449;-69
2021/06/29 06:52:12;;;;;;;10.77;9.73;;;22.60;99.90;;;;;;5049590;28;20450;-70
2021/06/29 06:54:39;;;;;;;12.60;11.30;;;22.70;99.90;;;;;;5045593;28;20584;-69
2021/06/29 06:57:09;;;;;;;12.67;11.37;;;22.80;99.90;;;;;;5043941;28;20513;-69
2021/06/29 06:59:37;;;;;;;11.97;10.87;;;22.70;99.90;;;;;;5047676;28;20454;-69
2021/06/29 07:02:04;;;;;;;12.53;11.40;;;22.60;99.90;;;;;;5042881;28;20444;-70
2021/06/29 07:04:34;;;;;;;14.60;11.23;;;22.60;99.90;;;;;;5036211;28;20983;-69
2021/06/29 07:07:01;;;;;;;10.90;8.97;;;22.80;99.90;;;;;;5047621;28;20454;-68
2021/06/29 07:09:28;;;;;;;12.57;11.40;;;22.80;99.90;;;;;;5042240;28;20450;-68
2021/06/29 07:11:55;;;;;;;11.33;10.13;;;22.90;99.90;;;;;;5041663;28;20446;-69
2021/06/29 07:14:24;;;;;;;11.00;10.10;;;22.80;99.90;;;;;;5052029;28;20480;-69
2021/06/29 07:16:51;;;;;;;12.23;9.60;;;22.90;99.90;;;;;;5053710;28;20500;-70
2021/06/29 07:19:20;;;;;;;12.43;11.13;;;23.00;99.90;;;;;;5051103;28;20446;-68
2021/06/29 07:21:47;;;;;;;17.70;11.97;;;22.90;99.90;;;;;;5045984;28;20466;-68
2021/06/29 07:24:14;;;;;;;10.53;9.50;;;22.90;99.90;;;;;;5042795;28;20545;-69
2021/06/29 07:26:41;;;;;;;10.27;9.40;;;22.90;99.90;;;;;;5053567;28;20450;-70
2021/06/29 07:29:08;;;;;;;12.17;10.80;;;23.00;99.90;;;;;;5039703;28;20817;-70
2021/06/29 07:31:37;;;;;;;9.33;8.53;;;23.10;99.90;;;;;;5045427;28;20759;-69
2021/06/29 07:34:04;;;;;;;9.50;8.60;;;23.40;99.90;;;;;;5049792;28;20466;-69
2021/06/29 07:36:31;;;;;;;11.30;10.07;;;23.60;99.90;;;;;;5053351;28;20474;-68
2021/06/29 07:38:58;;;;;;;10.83;9.90;;;23.80;99.90;;;;;;5052684;28;20924;-69
2021/06/29 07:41:26;;;;;;;13.60;11.40;;;24.00;99.90;;;;;;5039542;28;20448;-68
2021/06/29 07:43:53;;;;;;;10.20;9.10;;;24.10;99.90;;;;;;5039544;28;20827;-68
2021/06/29 07:46:20;;;;;;;9.30;8.50;;;24.10;99.90;;;;;;5042355;28;20443;-69
2021/06/29 07:48:49;;;;;;;10.30;9.40;;;24.00;99.90;;;;;;5048460;28;20446;-69
2021/06/29 07:51:16;;;;;;;12.20;11.10;;;24.00;99.90;;;;;;5045908;28;20460;-69
2021/06/29 07:53:43;;;;;;;10.63;9.73;;;24.00;99.90;;;;;;5045231;28;20537;-69
2021/06/29 07:56:14;;;;;;;15.93;9.83;;;23.70;99.90;;;;;;5059189;28;20473;-69
2021/06/29 07:58:42;;;;;;;11.63;10.50;;;23.80;99.90;;;;;;5051518;28;20447;-68
2021/06/29 08:01:09;;;;;;;13.53;11.57;;;23.80;99.90;;;;;;5052502;28;20461;-68
2021/06/29 08:03:37;;;;;;;10.67;9.60;;;23.80;99.90;;;;;;5037385;28;20984;-70
2021/06/29 08:06:06;;;;;;;15.37;12.67;;;24.00;99.90;;;;;;5044956;28;20451;-69
2021/06/29 08:08:33;;;;;;;16.60;14.20;;;24.10;99.90;;;;;;5045722;28;20912;-69
2021/06/29 08:11:01;;;;;;;12.97;11.63;;;24.20;99.90;;;;;;5047776;28;20800;-69
2021/06/29 08:13:29;;;;;;;11.97;10.80;;;24.20;99.90;;;;;;5052231;28;20495;-69
2021/06/29 08:15:58;;;;;;;11.90;10.80;;;24.40;99.90;;;;;;5044331;28;20451;-69
2021/06/29 08:18:27;;;;;;;13.77;12.23;;;24.60;99.90;;;;;;5050671;28;20457;-69
2021/06/29 08:20:55;;;;;;;15.77;13.23;;;24.50;99.90;;;;;;5045958;28;20545;-69
2021/06/29 08:23:25;;;;;;;14.17;11.30;;;24.50;99.90;;;;;;5049425;28;20483;-69
2021/06/29 08:25:52;;;;;;;15.30;13.90;;;24.60;99.90;;;;;;5052109;28;20442;-70
2021/06/29 08:28:20;;;;;;;16.50;14.80;;;24.30;99.90;;;;;;5037053;28;20537;-69
2021/06/29 08:30:50;;;;;;;17.90;16.30;;;24.30;99.90;;;;;;5043298;28;20442;-69
2021/06/29 08:33:21;;;;;;;12.63;11.63;;;24.30;99.90;;;;;;5043820;28;20450;-69
2021/06/29 08:35:49;;;;;;;14.70;13.30;;;24.30;99.90;;;;;;5049976;28;20450;-68
2021/06/29 08:38:17;;;;;;;14.70;13.40;;;24.20;99.90;;;;;;5048498;28;20458;-69
2021/06/29 08:40:47;;;;;;;18.10;16.47;;;24.20;99.90;;;;;;5048782;28;20446;-68
2021/06/29 08:43:15;;;;;;;17.10;15.57;;;24.20;99.90;;;;;;5051820;28;20457;-70
2021/06/29 08:45:42;;;;;;;18.60;16.93;;;24.20;99.90;;;;;;5052663;28;20807;-69
2021/06/29 08:48:10;;;;;;;14.10;12.70;;;24.30;99.90;;;;;;5051834;28;20434;-71
2021/06/29 08:50:39;;;;;;;18.83;17.17;;;24.40;99.90;;;;;;5045935;28;20445;-69
2021/06/29 08:53:08;;;;;;;17.80;16.20;;;24.40;99.90;;;;;;5045916;28;20445;-70
2021/06/29 08:55:37;;;;;;;14.70;13.20;;;24.50;99.90;;;;;;5045815;28;20513;-70
2021/06/29 08:58:06;;;;;;;16.93;13.80;;;24.70;99.90;;;;;;5053416;28;20473;-69
2021/06/29 09:00:33;;;;;;;14.50;12.70;;;24.80;99.90;;;;;;5038112;28;20800;-69
2021/06/29 09:03:04;;;;;;;15.60;14.00;;;24.90;99.90;;;;;;5051143;28;20442;-70
2021/06/29 09:05:31;;;;;;;13.40;12.20;;;24.80;99.90;;;;;;5044308;28;20454;-70
2021/06/29 09:08:07;;;;;;;16.57;14.97;;;25.10;99.90;;;;;;5050868;28;20449;-70
2021/06/29 09:10:36;;;;;;;14.47;13.00;;;25.20;99.90;;;;;;5046744;28;20445;-68
2021/06/29 09:13:05;;;;;;;13.37;12.17;;;25.30;99.90;;;;;;5044632;28;20447;-68
2021/06/29 09:15:37;;;;;;;16.77;15.23;;;25.50;99.90;;;;;;5047104;28;20937;-69
2021/06/29 09:18:13;;;;;;;14.70;13.20;;;25.60;99.90;;;;;;5051912;28;20479;-70
2021/06/29 09:20:42;;;;;;;16.47;14.77;;;25.70;99.90;;;;;;5036633;28;20450;-70
2021/06/29 09:23:12;;;;;;;14.10;12.57;;;25.80;99.90;;;;;;5046724;28;20465;-69
2021/06/29 09:25:40;;;;;;;14.67;13.20;;;25.90;99.90;;;;;;5045954;28;20445;-69
2021/06/29 09:28:08;;;;;;;13.87;12.30;;;26.00;99.90;;;;;;5043825;28;20880;-69
2021/06/29 09:30:40;;;;;;;14.67;13.37;;;25.90;99.90;;;;;;5051133;28;20811;-69
2021/06/29 09:33:09;;;;;;;12.27;11.23;;;25.80;99.90;;;;;;5051118;28;20445;-70
2021/06/29 09:35:39;;;;;;;12.80;11.47;;;25.70;99.90;;;;;;5048212;28;20549;-68
2021/06/29 09:38:08;;;;;;;15.57;14.00;;;25.60;99.90;;;;;;5047771;28;20472;-68
2021/06/29 09:40:37;;;;;;;15.87;14.23;;;25.60;99.90;;;;;;5034599;28;20446;-69
2021/06/29 09:43:15;;;;;;;14.30;12.80;;;25.30;99.90;;;;;;5045878;28;20498;-69
2021/06/29 09:45:46;;;;;;;15.00;13.80;;;25.20;99.90;;;;;;5043531;28;20464;-69
2021/06/29 09:48:14;;;;;;;17.20;13.00;;;25.10;99.90;;;;;;5049941;28;20450;-69
2021/06/29 09:50:49;;;;;;;16.00;14.43;;;25.00;99.90;;;;;;5047970;28;20456;-69
2021/06/29 09:53:20;;;;;;;17.17;15.37;;;25.00;99.90;;;;;;5042624;28;20506;-69
2021/06/29 09:55:48;;;;;;;15.00;13.77;;;24.90;99.90;;;;;;5059423;28;20445;-69
2021/06/29 09:58:16;;;;;;;15.80;14.40;;;24.90;99.90;;;;;;5047530;28;20498;-69
2021/06/29 10:00:48;;;;;;;18.93;17.30;;;24.80;99.90;;;;;;5054101;28;20446;-69
2021/06/29 10:03:20;;;;;;;18.43;16.53;;;24.50;99.90;;;;;;5034775;28;20581;-70
2021/06/29 10:05:47;;;;;;;16.23;14.83;;;24.40;99.90;;;;;;5040755;28;20527;-69
2021/06/29 10:08:23;;;;;;;16.07;14.67;;;24.50;99.90;;;;;;5044025;28;20450;-70
2021/06/29 10:10:50;;;;;;;14.07;12.50;;;24.40;99.90;;;;;;5033462;28;20454;-70
2021/06/29 10:13:19;;;;;;;12.80;11.70;;;24.60;99.90;;;;;;5051128;28;20442;-69
2021/06/29 10:15:47;;;;;;;13.27;12.07;;;24.40;99.90;;;;;;5053770;28;20519;-68
2021/06/29 10:18:16;;;;;;;13.20;12.10;;;24.40;99.90;;;;;;5042730;28;20533;-69
2021/06/29 10:20:52;;;;;;;12.40;11.20;;;24.40;99.90;;;;;;5052816;28;20454;-69
2021/06/29 10:23:20;;;;;;;13.67;12.37;;;24.40;99.90;;;;;;5035447;28;20443;-71
2021/06/29 10:25:50;;;;;;;12.97;11.87;;;24.40;99.90;;;;;;5046154;28;20444;-70
2021/06/29 10:28:18;;;;;;;16.10;14.70;;;24.40;99.90;;;;;;5051134;28;20469;-69
2021/06/29 10:30:48;;;;;;;13.60;12.20;;;24.20;99.90;;;;;;5048823;28;20966;-69
2021/06/29 10:33:16;;;;;;;15.83;14.43;;;24.30;99.90;;;;;;5045659;28;20450;-70
2021/06/29 10:35:43;;;;;;;15.47;13.87;;;24.40;99.90;;;;;;5049583;28;20457;-68
2021/06/29 10:38:11;;;;;;;16.03;14.43;;;24.40;99.90;;;;;;5042324;28;20477;-70
2021/06/29 10:40:38;;;;;;;14.00;12.60;;;24.40;99.90;;;;;;5053353;28;20442;-70
2021/06/29 10:43:05;;;;;;;13.07;11.90;;;24.60;99.90;;;;;;5053823;28;20450;-74
2021/06/29 10:45:37;;;;;;;15.07;13.87;;;24.60;99.90;;;;;;5047338;28;20442;-73
2021/06/29 10:48:20;;;;;;;13.43;12.43;;;24.50;99.90;;;;;;5050866;28;20454;-72
2021/06/29 10:50:48;;;;;;;14.73;13.23;;;24.60;99.90;;;;;;5051119;28;20448;-70
2021/06/29 10:53:35;;;;;;;13.17;11.87;;;24.60;99.90;;;;;;5044746;28;20447;-69
2021/06/29 10:56:06;;;;;;;12.97;11.87;;;24.70;99.90;;;;;;5058465;28;20445;-69
2021/06/29 10:58:41;;;;;;;13.03;12.03;;;24.70;99.90;;;;;;5047932;28;20494;-68
2021/06/29 11:01:28;;;;;;;11.53;10.47;;;24.80;99.90;;;;;;5044927;28;20453;-70
2021/06/29 11:04:00;;;;;;;13.53;12.40;;;24.70;99.90;;;;;;5041641;28;20466;-69
2021/06/29 11:06:48;;;;;;;12.70;11.50;;;24.70;99.90;;;;;;5042790;28;20454;-69
2021/06/29 11:09:18;;;;;;;14.77;13.40;;;24.70;99.90;;;;;;5046413;28;20457;-69
2021/06/29 11:12:19;;;;;;;14.77;13.37;;;24.60;99.90;;;;;;5042012;28;20499;-70
2021/06/29 11:14:48;;;;;;;13.53;12.43;;;24.70;99.90;;;;;;5050591;28;20468;-69
2021/06/29 11:17:17;;;;;;;14.27;13.10;;;24.70;99.90;;;;;;5046723;28;20486;-70
2021/06/29 11:20:09;;;;;;;17.17;13.30;;;24.60;99.90;;;;;;5052848;28;20535;-69
2021/06/29 11:23:00;;;;;;;14.57;13.27;;;24.60;99.90;;;;;;5044152;28;20448;-70
2021/06/29 11:25:44;;;;;;;15.07;13.60;;;24.70;99.90;;;;;;5052882;28;20811;-69
2021/06/29 11:28:17;;;;;;;14.57;13.03;;;24.80;99.90;;;;;;5052676;28;20862;-68
2021/06/29 11:31:10;;;;;;;15.23;13.87;;;24.90;99.90;;;;;;5052294;28;20942;-70
2021/06/29 11:33:54;;;;;;;14.83;13.30;;;24.90;99.90;;;;;;5052348;28;20470;-70
2021/06/29 11:36:47;;;;;;;14.73;13.43;;;24.70;99.90;;;;;;5052414;28;20445;-69
2021/06/29 11:39:30;;;;;;;13.50;12.40;;;24.60;99.90;;;;;;5041624;28;20457;-69
2021/06/29 11:41:58;;;;;;;15.23;13.87;;;24.50;99.90;;;;;;5040611;28;21019;-70
2021/06/29 11:44:49;;;;;;;13.57;12.37;;;24.40;99.90;;;;;;5046099;28;20535;-70
2021/06/29 11:47:19;;;;;;;13.53;12.43;;;24.30;99.90;;;;;;5051893;28;20444;-70
2021/06/29 11:49:55;;;;;;;13.43;12.00;;;24.20;99.90;;;;;;5052195;28;20894;-70
2021/06/29 11:52:34;;;;;;;14.67;13.27;;;24.10;99.90;;;;;;5048024;28;20511;-69
2021/06/29 11:55:05;;;;;;;14.20;12.80;;;23.90;99.90;;;;;;5050076;28;20466;-69
2021/06/29 11:57:35;;;;;;;12.43;11.40;;;23.70;99.90;;;;;;5051442;28;20481;-70
2021/06/29 12:00:07;;;;;;;13.27;12.27;;;23.60;99.90;;;;;;5047426;28;20445;-70
2021/06/29 12:02:35;;;;;;;12.70;11.60;;;23.40;99.90;;;;;;5049202;28;20446;-69
2021/06/29 12:05:04;;;;;;;12.53;11.43;;;23.20;99.90;;;;;;5043774;28;20478;-69
2021/06/29 12:07:38;;;;;;;11.07;10.07;;;23.00;99.90;;;;;;5045726;28;20454;-70
2021/06/29 12:10:11;;;;;;;5.87;5.37;;;22.50;99.90;;;;;;5045972;28;20862;-69
2021/06/29 12:12:39;;;;;;;8.83;5.60;;;22.20;99.90;;;;;;5048870;28;20836;-70
2021/06/29 12:15:12;;;;;;;6.23;3.43;;;22.00;99.90;;;;;;5052294;28;20496;-70
2021/06/29 12:18:01;;;;;;;4.23;3.37;;;21.70;99.90;;;;;;5048798;28;20480;-68
2021/06/29 12:20:31;;;;;;;3.10;2.70;;;21.60;99.90;;;;;;5047892;28;20456;-69
2021/06/29 12:23:01;;;;;;;4.13;2.47;;;21.70;99.90;;;;;;5048567;28;20453;-70
2021/06/29 12:25:31;;;;;;;2.60;1.73;;;21.80;99.90;;;;;;5047485;28;20445;-69
2021/06/29 12:28:02;;;;;;;3.30;2.23;;;22.00;99.90;;;;;;5046948;28;20942;-69
2021/06/29 12:30:32;;;;;;;1.90;1.80;;;22.30;99.90;;;;;;5047040;28;20435;-69
2021/06/29 12:33:01;;;;;;;2.90;2.60;;;22.50;99.90;;;;;;5041252;28;20438;-69
2021/06/29 12:35:32;;;;;;;3.90;2.53;;;22.90;99.90;;;;;;5050005;28;20450;-70
2021/06/29 12:38:03;;;;;;;2.60;2.33;;;23.10;99.90;;;;;;5049805;28;20555;-70
2021/06/29 12:40:31;;;;;;;4.00;3.60;;;23.40;99.90;;;;;;5048493;28;20450;-69
2021/06/29 12:42:59;;;;;;;4.70;3.20;;;23.60;99.90;;;;;;5051136;28;20450;-69
2021/06/29 12:45:30;;;;;;;4.97;3.83;;;23.90;99.90;;;;;;5043811;28;20463;-69